Time;durP1;ratioP1;P1;durP2;ratioP2;P2;SDS_P1;SDS_P2;PMS_P1;PMS_P2;Temp;Humidity;BMP_temperature;BMP_pressure;BME280_temperature;BME280_humidity;BME280_pressure;Samples;Min_cycle;Max_cycle;Signal;HPM_P1;HPM_P2
2021/08/03 00:01:03;;;;;;;;;;;13.30;1.00;;;;;;4973638;28;19917;-66
2021/08/03 00:03:31;;;;;;;;;;;13.20;1.00;;;;;;4973372;28;20001;-66
2021/08/03 00:05:57;;;;;;;;;;;13.20;1.00;;;;;;4972961;28;19968;-66
2021/08/03 00:08:25;;;;;;;;;;;13.20;1.00;;;;;;4973021;28;19922;-66
2021/08/03 00:10:51;;;;;;;;;;;13.10;1.00;;;;;;4973168;28;19968;-66
2021/08/03 00:13:17;;;;;;;;;;;13.10;1.00;;;;;;4972794;28;20364;-66
2021/08/03 00:15:42;;;;;;;;;;;13.10;1.00;;;;;;4973359;28;19910;-66
2021/08/03 00:18:08;;;;;;;;;;;13.10;1.00;;;;;;4972686;28;20045;-66
2021/08/03 00:20:36;;;;;;;;;;;13.10;1.00;;;;;;4973507;28;20001;-66
2021/08/03 00:23:01;;;;;;;;;;;13.10;1.00;;;;;;4973333;28;20364;-66
2021/08/03 00:25:28;;;;;;;;;;;13.10;1.00;;;;;;4973364;28;19950;-66
2021/08/03 00:27:54;;;;;;;;;;;13.10;1.00;;;;;;4972189;28;20318;-66
2021/08/03 00:30:19;;;;;;;;;;;13.10;1.00;;;;;;4972951;28;19953;-66
2021/08/03 00:32:46;;;;;;;;;;;13.10;1.00;;;;;;4973142;28;19953;-66
2021/08/03 00:35:12;;;;;;;;;;;13.00;1.00;;;;;;4973151;28;19965;-66
2021/08/03 00:37:37;;;;;;;;;;;13.00;1.00;;;;;;4972374;28;20406;-66
2021/08/03 00:40:04;;;;;;;;;;;13.00;1.00;;;;;;4973279;28;19910;-65
2021/08/03 00:42:30;;;;;;;;;;;13.00;1.00;;;;;;4973092;28;19914;-65
2021/08/03 00:44:55;;;;;;;;;;;13.00;1.00;;;;;;4973623;28;20068;-65
2021/08/03 00:47:21;;;;;;;;;;;13.00;1.00;;;;;;4973388;28;19910;-65
2021/08/03 00:49:46;;;;;;;;;;;13.00;1.00;;;;;;4973126;28;19973;-66
2021/08/03 00:52:13;;;;;;;;;;;13.00;1.00;;;;;;4973097;28;19953;-66
2021/08/03 00:54:38;;;;;;;;;;;12.90;1.00;;;;;;4972823;28;20025;-66
2021/08/03 00:57:05;;;;;;;;;;;12.90;1.00;;;;;;4972221;28;20004;-66
2021/08/03 00:59:30;;;;;;;;;;;12.80;1.00;;;;;;4972614;28;19997;-66
2021/08/03 01:01:56;;;;;;;;;;;12.80;1.00;;;;;;4972845;28;20400;-66
2021/08/03 01:04:23;;;;;;;;;;;12.80;1.00;;;;;;4955240;28;19914;-66
2021/08/03 01:06:57;;;;;;;;;;;12.80;1.00;;;;;;4972662;28;20154;-66
2021/08/03 01:09:35;;;;;;;;;;;12.80;1.00;;;;;;4972410;28;19914;-66
2021/08/03 01:12:30;;;;;;;;;;;12.80;1.00;;;;;;4972202;28;19984;-66
2021/08/03 01:15:07;;;;;;;;;;;12.80;1.00;;;;;;4886966;28;19915;-66
2021/08/03 01:17:59;;;;;;;;;;;12.80;1.00;;;;;;4972136;28;19918;-66
2021/08/03 01:20:36;;;;;;;;;;;12.80;1.00;;;;;;4968005;28;20141;-66
2021/08/03 01:23:14;;;;;;;;;;;12.80;1.00;;;;;;4972183;28;19911;-65
2021/08/03 01:25:52;;;;;;;;;;;12.80;1.00;;;;;;4972674;28;20351;-67
2021/08/03 01:28:19;;;;;;;;;;;12.70;1.00;;;;;;4971349;28;19911;-66
2021/08/03 01:30:49;;;;;;;;;;;12.70;1.00;;;;;;4972206;28;19945;-67
2021/08/03 01:33:16;;;;;;;;;;;12.70;1.00;;;;;;4972271;28;19914;-67
2021/08/03 01:35:42;;;;;;;;;;;12.70;1.00;;;;;;4972175;28;19911;-66
2021/08/03 01:38:09;;;;;;;;;;;12.60;1.00;;;;;;4971746;28;20087;-66
2021/08/03 01:40:35;;;;;;;;;;;12.60;1.00;;;;;;4971714;28;19959;-65
2021/08/03 01:43:01;;;;;;;;;;;12.50;1.00;;;;;;4971846;28;19910;-67
2021/08/03 01:45:27;;;;;;;;;;;12.50;1.00;;;;;;4972310;28;20368;-67
2021/08/03 01:47:54;;;;;;;;;;;12.50;1.00;;;;;;4971706;28;19921;-66
2021/08/03 01:50:19;;;;;;;;;;;12.50;1.00;;;;;;4972121;28;20358;-67
2021/08/03 01:52:46;;;;;;;;;;;12.50;1.00;;;;;;4971692;28;19916;-66
2021/08/03 01:55:11;;;;;;;;;;;12.50;1.00;;;;;;4972262;28;19949;-67
2021/08/03 01:57:39;;;;;;;;;;;12.50;1.00;;;;;;4971604;28;19945;-67
2021/08/03 02:00:05;;;;;;;;;;;12.50;1.00;;;;;;4972071;28;19916;-67
2021/08/03 02:02:31;;;;;;;;;;;12.50;1.00;;;;;;4971875;28;20004;-66
2021/08/03 02:04:57;;;;;;;;;;;12.50;1.00;;;;;;4972090;28;20009;-67
2021/08/03 02:07:23;;;;;;;;;;;12.50;1.00;;;;;;4971815;28;20371;-67
2021/08/03 02:09:49;;;;;;;;;;;12.60;1.00;;;;;;4972150;28;19917;-66
2021/08/03 02:12:15;;;;;;;;;;;12.60;1.00;;;;;;4971588;28;19914;-66
2021/08/03 02:14:45;;;;;;;;;;;12.60;1.00;;;;;;4973058;28;19910;-67
2021/08/03 02:17:18;;;;;;;;;;;12.60;1.00;;;;;;4975736;28;19969;-66
2021/08/03 02:19:43;;;;;;;;;;;12.50;1.00;;;;;;4975486;28;19910;-67
2021/08/03 02:22:09;;;;;;;;;;;12.50;1.00;;;;;;4975335;28;19910;-67
2021/08/03 02:24:35;;;;;;;;;;;12.50;1.00;;;;;;4975535;28;19918;-67
2021/08/03 02:27:00;;;;;;;;;;;12.40;1.00;;;;;;4974890;28;19933;-66
2021/08/03 02:29:26;;;;;;;;;;;12.40;1.00;;;;;;4975044;28;19933;-67
2021/08/03 02:31:56;;;;;;;;;;;12.40;1.00;;;;;;4975119;28;19957;-66
2021/08/03 02:34:27;;;;;;;;;;;12.40;1.00;;;;;;4975395;28;20283;-66
2021/08/03 02:36:55;;;;;;;;;;;12.40;1.00;;;;;;4974709;28;19981;-67
2021/08/03 02:39:21;;;;;;;;;;;12.40;1.00;;;;;;4975191;28;19918;-67
2021/08/03 02:41:48;;;;;;;;;;;12.50;1.00;;;;;;4974776;28;20256;-67
2021/08/03 02:44:13;;;;;;;;;;;12.50;1.00;;;;;;4975137;28;20339;-66
2021/08/03 02:46:40;;;;;;;;;;;12.50;1.00;;;;;;4975187;28;19910;-67
2021/08/03 02:49:13;;;;;;;;;;;12.60;1.00;;;;;;4974024;28;19961;-66
2021/08/03 02:51:39;;;;;;;;;;;12.50;1.00;;;;;;4974791;28;19914;-66
2021/08/03 02:54:16;;;;;;;;;;;12.60;1.00;;;;;;4974698;28;19910;-66
2021/08/03 02:56:42;;;;;;;;;;;12.60;1.00;;;;;;4974573;28;19914;-66
2021/08/03 02:59:10;;;;;;;;;;;12.50;1.00;;;;;;4974136;28;19980;-66
2021/08/03 03:01:37;;;;;;;;;;;12.50;1.00;;;;;;4974646;28;19945;-66
2021/08/03 03:04:08;;;;;;;;;;;12.50;1.00;;;;;;4974855;28;19910;-66
2021/08/03 03:06:35;;;;;;;;;;;12.50;1.00;;;;;;4974672;28;20015;-66
2021/08/03 03:09:02;;;;;;;;;;;12.50;1.00;;;;;;4973841;28;20345;-66
2021/08/03 03:11:29;;;;;;;;;;;12.50;1.00;;;;;;4973647;28;19969;-67
2021/08/03 03:13:58;;;;;;;;;;;12.50;1.00;;;;;;4974666;28;19918;-67
2021/08/03 03:16:25;;;;;;;;;;;12.40;1.00;;;;;;4974288;28;19910;-66
2021/08/03 03:18:51;;;;;;;;;;;12.40;1.00;;;;;;4973799;28;19920;-66
2021/08/03 03:21:18;;;;;;;;;;;12.30;1.00;;;;;;4974070;28;19922;-66
2021/08/03 03:23:43;;;;;;;;;;;12.30;1.00;;;;;;4975215;28;19995;-66
2021/08/03 03:26:09;;;;;;;;;;;12.30;1.00;;;;;;4972921;28;19913;-67
2021/08/03 03:28:37;;;;;;;;;;;12.20;1.00;;;;;;4973788;28;20330;-67
2021/08/03 03:31:03;;;;;;;;;;;12.30;1.00;;;;;;4974293;28;20371;-66
2021/08/03 03:33:29;;;;;;;;;;;12.20;1.00;;;;;;4974065;28;19917;-66
2021/08/03 03:35:56;;;;;;;;;;;12.20;1.00;;;;;;4973978;28;20442;-67
2021/08/03 03:38:24;;;;;;;;;;;12.20;1.00;;;;;;4973735;28;19965;-66
2021/08/03 03:40:50;;;;;;;;;;;12.30;1.00;;;;;;4974193;28;19977;-67
2021/08/03 03:43:19;;;;;;;;;;;12.20;1.00;;;;;;4973674;28;19914;-66
2021/08/03 03:45:47;;;;;;;;;;;12.30;1.00;;;;;;4973947;28;20383;-67
2021/08/03 03:48:16;;;;;;;;;;;12.30;1.00;;;;;;4973315;28;20070;-67
2021/08/03 03:50:44;;;;;;;;;;;12.30;1.00;;;;;;4973969;28;20013;-67
2021/08/03 03:53:23;;;;;;;;;;;12.30;1.00;;;;;;4973719;28;20103;-67
2021/08/03 03:55:54;;;;;;;;;;;12.40;1.00;;;;;;4974118;28;20192;-66
2021/08/03 03:58:20;;;;;;;;;;;12.40;1.00;;;;;;4973223;28;19914;-65
2021/08/03 04:00:46;;;;;;;;;;;12.40;1.00;;;;;;4973800;28;19970;-66
2021/08/03 04:03:11;;;;;;;;;;;12.50;1.00;;;;;;4973854;28;20013;-65
2021/08/03 04:05:38;;;;;;;;;;;12.50;1.00;;;;;;4973384;28;19996;-65
2021/08/03 04:08:06;;;;;;;;;;;12.50;1.00;;;;;;4973149;28;19914;-66
2021/08/03 04:10:32;;;;;;;;;;;12.50;1.00;;;;;;4973427;28;20005;-66
2021/08/03 04:13:01;;;;;;;;;;;12.60;1.00;;;;;;4973285;28;19926;-66
2021/08/03 04:15:27;;;;;;;;;;;12.60;1.00;;;;;;4973541;28;19921;-66
2021/08/03 04:17:53;;;;;;;;;;;12.60;1.00;;;;;;4972608;28;20016;-66
2021/08/03 04:20:18;;;;;;;;;;;12.60;1.00;;;;;;4973341;28;20347;-66
2021/08/03 04:22:44;;;;;;;;;;;12.60;1.00;;;;;;4973363;28;20303;-66
2021/08/03 04:25:09;;;;;;;;;;;12.60;1.00;;;;;;4973017;28;19911;-66
2021/08/03 04:27:35;;;;;;;;;;;12.60;1.00;;;;;;4971986;28;19914;-66
2021/08/03 04:30:01;;;;;;;;;;;12.60;1.00;;;;;;4997718;23;19973;-67
2021/08/03 04:32:26;;;;;;;;;;;12.70;1.00;;;;;;4971708;28;20543;-67
2021/08/03 04:34:52;;;;;;;;;;;12.70;1.00;;;;;;4972731;28;19957;-67
2021/08/03 04:37:17;;;;;;;;;;;12.80;1.00;;;;;;4971679;28;19933;-67
2021/08/03 04:39:43;;;;;;;;;;;12.90;1.00;;;;;;4972053;28;19960;-67
2021/08/03 04:42:08;;;;;;;;;;;13.00;1.00;;;;;;4971784;28;20289;-66
2021/08/03 04:44:34;;;;;;;;;;;13.20;1.00;;;;;;4972777;28;19917;-67
2021/08/03 04:46:59;;;;;;;;;;;13.30;1.00;;;;;;4972513;28;19933;-67
2021/08/03 04:49:25;;;;;;;;;;;13.50;1.00;;;;;;4971599;28;19956;-67
2021/08/03 04:51:50;;;;;;;;;;;13.60;1.00;;;;;;4971733;28;19968;-67
2021/08/03 04:54:16;;;;;;;;;;;13.80;1.00;;;;;;4972212;28;19914;-67
2021/08/03 04:56:41;;;;;;;;;;;14.00;1.00;;;;;;4971721;28;19914;-67
2021/08/03 04:59:07;;;;;;;;;;;14.20;1.00;;;;;;4971735;28;19914;-67
2021/08/03 05:01:32;;;;;;;;;;;14.20;1.00;;;;;;4971986;28;19914;-67
2021/08/03 05:03:58;;;;;;;;;;;14.20;1.00;;;;;;4972100;28;20370;-67
2021/08/03 05:06:23;;;;;;;;;;;14.20;1.00;;;;;;4972184;28;20008;-67
2021/08/03 05:08:49;;;;;;;;;;;14.40;1.00;;;;;;4971926;28;19910;-66
2021/08/03 05:11:15;;;;;;;;;;;14.50;1.00;;;;;;4971138;28;19922;-67
2021/08/03 05:13:40;;;;;;;;;;;14.70;1.00;;;;;;4972210;28;19921;-67
2021/08/03 05:16:06;;;;;;;;;;;14.90;1.00;;;;;;4971977;28;19925;-67
2021/08/03 05:18:31;;;;;;;;;;;15.20;1.00;;;;;;4971678;28;19917;-67
2021/08/03 05:20:57;;;;;;;;;;;15.60;1.00;;;;;;4972006;28;19914;-66
2021/08/03 05:23:22;;;;;;;;;;;16.40;1.00;;;;;;4972146;28;20012;-66
2021/08/03 05:25:48;;;;;;;;;;;17.00;1.00;;;;;;4972027;28;19914;-67
2021/08/03 05:28:13;;;;;;;;;;;17.60;99.90;;;;;;4970963;28;19914;-67
2021/08/03 05:30:39;;;;;;;;;;;18.10;99.90;;;;;;4971875;28;20005;-67
2021/08/03 05:33:04;;;;;;;;;;;18.30;1.00;;;;;;4972182;28;19956;-67
2021/08/03 05:35:30;;;;;;;;;;;18.40;1.00;;;;;;4972177;28;19910;-67
2021/08/03 05:37:55;;;;;;;;;;;18.40;99.90;;;;;;4971125;28;19910;-67
2021/08/03 05:40:21;;;;;;;;;;;18.40;99.90;;;;;;4971067;28;19914;-68
2021/08/03 05:42:46;;;;;;;;;;;18.40;99.90;;;;;;4971645;28;19921;-67
2021/08/03 05:45:12;;;;;;;;;;;18.30;99.90;;;;;;4971798;28;20363;-68
2021/08/03 05:47:37;;;;;;;;;;;18.40;99.90;;;;;;4953698;28;19930;-68
2021/08/03 05:50:05;;;;;;;;;;;18.80;99.90;;;;;;4973237;28;19910;-68
2021/08/03 05:52:31;;;;;;;;;;;19.80;1.00;;;;;;4974976;28;20295;-67
2021/08/03 05:54:56;;;;;;;;;;;20.40;1.00;;;;;;4975400;28;19910;-68
2021/08/03 05:57:22;;;;;;;;;;;21.00;1.00;;;;;;4974313;28;19921;-68
2021/08/03 05:59:47;;;;;;;;;;;21.40;1.00;;;;;;4975530;28;20242;-67
2021/08/03 06:02:13;;;;;;;;;;;21.20;1.00;;;;;;4974787;28;19910;-69
2021/08/03 06:04:38;;;;;;;;;;;21.00;1.00;;;;;;4975226;28;19961;-68
2021/08/03 06:07:06;;;;;;;;;;;20.60;1.00;;;;;;4975080;28;20366;-68
2021/08/03 06:09:34;;;;;;;;;;;20.30;1.00;;;;;;4974591;28;20335;-68
2021/08/03 06:12:01;;;;;;;;;;;20.00;1.00;;;;;;4974506;28;19914;-67
2021/08/03 06:14:36;;;;;;;;;;;19.70;1.00;;;;;;4974793;28;19914;-68
2021/08/03 06:17:07;;;;;;;;;;;19.50;1.00;;;;;;4974842;28;19910;-68
2021/08/03 06:19:42;;;;;;;;;;;19.40;1.00;;;;;;4974514;28;19932;-69
2021/08/03 06:22:08;;;;;;;;;;;19.40;1.00;;;;;;4974821;28;19932;-65
2021/08/03 06:24:35;;;;;;;;;;;19.40;1.00;;;;;;4974625;28;19986;-66
2021/08/03 06:27:00;;;;;;;;;;;19.60;1.00;;;;;;4974597;28;19914;-67
2021/08/03 06:29:27;;;;;;;;;;;19.80;1.00;;;;;;4974359;28;20259;-67
2021/08/03 06:31:53;;;;;;;;;;;20.10;1.00;;;;;;4974721;28;20140;-66
2021/08/03 06:34:19;;;;;;;;;;;20.30;1.00;;;;;;4974750;28;19950;-66
2021/08/03 06:36:45;;;;;;;;;;;20.50;1.00;;;;;;4974394;28;19910;-66
2021/08/03 06:39:10;;;;;;;;;;;20.80;1.00;;;;;;4974359;28;20122;-66
2021/08/03 06:41:39;;;;;;;;;;;21.80;1.00;;;;;;4974166;28;20260;-67
2021/08/03 06:44:10;;;;;;;;;;;23.70;1.00;;;;;;4974864;28;19968;-66
2021/08/03 06:46:39;;;;;;;;;;;25.80;99.90;;;;;;4974468;28;19997;-67
2021/08/03 06:49:09;;;;;;;;;;;27.70;99.90;;;;;;4973980;28;19910;-66
2021/08/03 06:51:36;;;;;;;;;;;28.60;99.90;;;;;;4974709;28;19914;-66
2021/08/03 06:54:05;;;;;;;;;;;29.10;99.90;;;;;;4974738;28;20020;-67
2021/08/03 06:56:51;;;;;;;;;;;29.10;99.90;;;;;;4974227;28;20334;-66
2021/08/03 06:59:18;;;;;;;;;;;29.20;99.90;;;;;;4973801;28;20008;-67
2021/08/03 07:01:48;;;;;;;;;;;29.00;99.90;;;;;;4974587;28;20284;-68
2021/08/03 07:04:19;;;;;;;;;;;28.60;99.90;;;;;;4974742;28;19914;-68
2021/08/03 07:06:48;;;;;;;;;;;28.00;99.90;;;;;;4974327;28;19914;-67
2021/08/03 07:09:14;;;;;;;;;;;27.30;99.90;;;;;;4974284;28;19914;-67
2021/08/03 07:11:40;;;;;;;;;;;26.20;99.90;;;;;;4973620;28;19921;-68
2021/08/03 07:14:06;;;;;;;;;;;25.40;99.90;;;;;;4974339;28;20013;-68
2021/08/03 07:16:32;;;;;;;;;;;24.50;99.90;;;;;;4974035;28;19914;-67
2021/08/03 07:18:57;;;;;;;;;;;23.90;99.90;;;;;;4973792;28;19961;-68
2021/08/03 07:21:26;;;;;;;;;;;23.40;99.90;;;;;;4974010;28;19918;-68
2021/08/03 07:23:56;;;;;;;;;;;22.90;99.90;;;;;;4973971;28;19910;-68
2021/08/03 07:26:22;;;;;;;;;;;21.60;99.90;;;;;;4974181;28;19919;-68
2021/08/03 07:28:48;;;;;;;;;;;21.70;99.90;;;;;;4973405;28;19953;-67
2021/08/03 07:31:13;;;;;;;;;;;21.70;99.90;;;;;;4973560;28;20350;-68
2021/08/03 07:33:39;;;;;;;;;;;22.40;99.90;;;;;;4974396;28;19910;-68
2021/08/03 07:36:05;;;;;;;;;;;23.20;99.90;;;;;;4973497;28;20354;-68
2021/08/03 07:38:30;;;;;;;;;;;24.60;99.90;;;;;;4973539;28;20378;-68
2021/08/03 07:40:56;;;;;;;;;;;25.30;99.90;;;;;;4973847;28;19930;-68
2021/08/03 07:43:21;;;;;;;;;;;26.40;99.90;;;;;;4973134;28;20462;-68
2021/08/03 07:45:47;;;;;;;;;;;26.20;99.90;;;;;;4973438;28;19918;-68
2021/08/03 07:48:12;;;;;;;;;;;25.90;99.90;;;;;;4973311;28;19910;-68
2021/08/03 07:50:38;;;;;;;;;;;25.60;99.90;;;;;;4973358;28;19914;-68
2021/08/03 07:53:03;;;;;;;;;;;25.00;99.90;;;;;;4973143;28;20403;-67
2021/08/03 07:55:29;;;;;;;;;;;24.30;99.90;;;;;;4973204;28;19946;-67
2021/08/03 07:57:54;;;;;;;;;;;23.60;99.90;;;;;;4972588;28;20001;-67
2021/08/03 08:00:20;;;;;;;;;;;23.30;99.90;;;;;;4973142;28;20363;-67
2021/08/03 08:02:46;;;;;;;;;;;22.60;99.90;;;;;;4973189;28;19965;-68
2021/08/03 08:05:11;;;;;;;;;;;22.50;99.90;;;;;;4973411;28;20403;-67
2021/08/03 08:07:36;;;;;;;;;;;22.30;99.90;;;;;;4972344;28;19960;-67
2021/08/03 08:10:02;;;;;;;;;;;22.40;99.90;;;;;;4973053;28;19914;-67
2021/08/03 08:12:28;;;;;;;;;;;22.40;99.90;;;;;;4972195;28;20005;-67
2021/08/03 08:14:53;;;;;;;;;;;22.60;99.90;;;;;;4973090;28;19917;-67
2021/08/03 08:17:19;;;;;;;;;;;22.80;99.90;;;;;;4972564;28;20092;-67
2021/08/03 08:19:44;;;;;;;;;;;23.10;99.90;;;;;;4972936;28;20004;-67
2021/08/03 08:22:10;;;;;;;;;;;23.40;99.90;;;;;;4972076;28;20049;-67
2021/08/03 08:24:36;;;;;;;;;;;24.20;99.90;;;;;;4972631;28;20264;-67
2021/08/03 08:27:01;;;;;;;;;;;24.60;99.90;;;;;;4972301;28;20009;-67
2021/08/03 08:29:27;;;;;;;;;;;25.10;99.90;;;;;;4972396;28;19910;-68
2021/08/03 08:31:52;;;;;;;;;;;25.80;99.90;;;;;;4972168;28;20283;-68
2021/08/03 08:34:19;;;;;;;;;;;26.00;99.90;;;;;;4972677;28;20424;-68
2021/08/03 08:36:44;;;;;;;;;;;25.80;99.90;;;;;;4972614;28;19914;-68
2021/08/03 08:39:10;;;;;;;;;;;25.40;99.90;;;;;;4972236;28;20064;-67
2021/08/03 08:41:37;;;;;;;;;;;25.10;99.90;;;;;;4971710;28;20306;-68
2021/08/03 08:44:03;;;;;;;;;;;24.50;99.90;;;;;;4972769;28;20282;-67
2021/08/03 08:46:33;;;;;;;;;;;23.90;99.90;;;;;;4972567;28;20001;-68
2021/08/03 08:49:00;;;;;;;;;;;23.60;99.90;;;;;;4972213;28;20363;-68
2021/08/03 08:51:32;;;;;;;;;;;23.00;99.90;;;;;;4973080;28;19918;-67
2021/08/03 08:53:58;;;;;;;;;;;22.40;99.90;;;;;;4969519;28;19918;-67
2021/08/03 08:56:24;;;;;;;;;;;22.00;99.90;;;;;;4972129;28;19921;-68
2021/08/03 08:58:49;;;;;;;;;;;22.00;99.90;;;;;;4971573;28;19910;-67
2021/08/03 09:01:15;;;;;;;;;;;21.60;99.90;;;;;;4971901;28;19910;-68
2021/08/03 09:03:41;;;;;;;;;;;21.90;99.90;;;;;;4971904;28;19969;-69
2021/08/03 09:06:07;;;;;;;;;;;22.20;99.90;;;;;;4972128;28;20386;-68
2021/08/03 09:08:33;;;;;;;;;;;22.70;99.90;;;;;;4971417;28;20021;-68
2021/08/03 09:11:04;;;;;;;;;;;23.40;99.90;;;;;;4972141;28;20508;-68
2021/08/03 09:13:29;;;;;;;;;;;23.90;99.90;;;;;;4972394;28;20327;-67
2021/08/03 09:15:59;;;;;;;;;;;24.70;99.90;;;;;;4971643;28;19950;-67
2021/08/03 09:18:28;;;;;;;;;;;25.10;99.90;;;;;;4971541;28;19917;-68
2021/08/03 09:20:55;;;;;;;;;;;25.70;99.90;;;;;;4971860;28;19964;-68
2021/08/03 09:23:38;;;;;;;;;;;26.30;99.90;;;;;;4971425;28;19975;-68
2021/08/03 09:26:03;;;;;;;;;;;26.30;99.90;;;;;;4974616;28;19914;-68
2021/08/03 09:28:29;;;;;;;;;;;26.50;99.90;;;;;;4975379;28;19918;-68
2021/08/03 09:30:55;;;;;;;;;;;26.70;99.90;;;;;;4975582;28;19918;-67
2021/08/03 09:33:21;;;;;;;;;;;27.40;99.90;;;;;;4975709;28;19932;-68
2021/08/03 09:35:48;;;;;;;;;;;27.80;99.90;;;;;;4975224;28;19918;-68
2021/08/03 09:38:14;;;;;;;;;;;28.00;99.90;;;;;;4975139;28;20296;-68
2021/08/03 09:40:39;;;;;;;;;;;28.00;99.90;;;;;;4975440;28;19961;-68
2021/08/03 09:43:12;;;;;;;;;;;28.00;99.90;;;;;;4975080;28;20335;-68
2021/08/03 09:45:38;;;;;;;;;;;27.80;99.90;;;;;;4975478;28;20371;-68
2021/08/03 09:48:08;;;;;;;;;;;28.50;99.90;;;;;;4975079;28;19998;-68
2021/08/03 09:50:52;;;;;;;;;;;28.90;99.90;;;;;;4975492;28;20008;-68
2021/08/03 09:53:34;;;;;;;;;;;28.60;99.90;;;;;;4957988;28;20004;-68
2021/08/03 09:56:00;;;;;;;;;;;28.80;99.90;;;;;;4975077;28;19917;-68
2021/08/03 09:58:27;;;;;;;;;;;29.50;99.90;;;;;;4974821;28;19910;-68
2021/08/03 10:00:53;;;;;;;;;;;29.70;99.90;;;;;;4975321;28;19921;-68
2021/08/03 10:03:19;;;;;;;;;;;29.70;99.90;;;;;;4975417;28;19918;-68
2021/08/03 10:05:45;;;;;;;;;;;30.90;99.90;;;;;;4975392;28;19910;-68
2021/08/03 10:08:11;;;;;;;;;;;31.10;99.90;;;;;;4974897;28;19910;-68
2021/08/03 10:10:37;;;;;;;;;;;31.40;99.90;;;;;;4974744;28;19921;-66
2021/08/03 10:13:03;;;;;;;;;;;31.30;99.90;;;;;;4974762;28;19910;-68
2021/08/03 10:15:29;;;;;;;;;;;30.80;99.90;;;;;;4975433;28;19918;-68
2021/08/03 10:17:54;;;;;;;;;;;30.10;99.90;;;;;;4974608;28;19925;-68
2021/08/03 10:20:20;;;;;;;;;;;29.20;99.90;;;;;;4974681;28;19965;-68
2021/08/03 10:22:52;;;;;;;;;;;28.70;99.90;;;;;;4974676;28;19910;-68
2021/08/03 10:25:18;;;;;;;;;;;29.00;99.90;;;;;;4974962;28;20008;-69
2021/08/03 10:27:44;;;;;;;;;;;29.90;99.90;;;;;;4973711;28;19918;-68
2021/08/03 10:32:52;;;;;;;;;;;31.30;99.90;;;;;;4997459;23;19932;-65
2021/08/03 10:35:18;;;;;;;;;;;32.70;99.90;;;;;;4974255;28;19922;-66
2021/08/03 10:37:56;;;;;;;;;;;33.80;99.90;;;;;;4973911;28;20457;-66
2021/08/03 10:40:41;;;;;;;;;;;34.10;99.90;;;;;;4973986;28;20012;-66
2021/08/03 10:43:13;;;;;;;;;;;34.40;99.90;;;;;;4954764;29;19985;-66
2021/08/03 10:45:39;;;;;;;;;;;34.90;99.90;;;;;;4954915;29;19914;-66
2021/08/03 10:48:04;;;;;;;;;;;34.70;99.90;;;;;;4954879;29;19967;-66
2021/08/03 10:50:32;;;;;;;;;;;34.90;99.90;;;;;;4954621;28;20344;-66
2021/08/03 10:52:58;;;;;;;;;;;35.50;99.90;;;;;;4954974;29;19933;-66
2021/08/03 10:55:27;;;;;;;;;;;35.50;99.90;;;;;;4955188;29;20287;-66
2021/08/03 10:58:10;;;;;;;;;;;34.70;99.90;;;;;;4953868;29;20018;-66
2021/08/03 11:00:49;;;;;;;;;;;33.90;99.90;;;;;;4954796;28;19955;-66
2021/08/03 11:03:30;;;;;;;;;;;33.00;99.90;;;;;;4954752;29;19938;-66
2021/08/03 11:06:11;;;;;;;;;;;31.40;99.90;;;;;;4954659;29;20343;-67
2021/08/03 11:08:38;;;;;;;;;;;29.70;99.90;;;;;;4953880;29;19987;-65
2021/08/03 11:11:06;;;;;;;;;;;28.50;99.90;;;;;;4954038;28;19918;-65
2021/08/03 11:13:36;;;;;;;;;;;27.50;99.90;;;;;;4955432;29;20286;-67
2021/08/03 11:16:01;;;;;;;;;;;26.60;99.90;;;;;;4936773;29;19915;-67
2021/08/03 11:18:40;;;;;;;;;;;25.30;99.90;;;;;;4954091;29;19933;-67
2021/08/03 11:21:06;;;;;;;;;;;24.70;99.90;;;;;;4954148;28;19921;-67
2021/08/03 11:23:50;;;;;;;;;;;24.20;99.90;;;;;;4954386;29;19910;-67
2021/08/03 11:26:19;;;;;;;;;;;24.00;99.90;;;;;;4954211;29;19933;-67
2021/08/03 11:28:55;;;;;;;;;;;23.40;99.90;;;;;;4953886;29;19910;-66
2021/08/03 11:31:21;;;;;;;;;;;22.60;99.90;;;;;;4954398;28;19922;-66
2021/08/03 11:33:53;;;;;;;;;;;21.80;99.90;;;;;;4954774;29;19933;-67
2021/08/03 11:36:19;;;;;;;;;;;21.20;99.90;;;;;;4954364;29;20340;-66
2021/08/03 11:38:44;;;;;;;;;;;20.90;99.90;;;;;;4953300;29;20017;-66
2021/08/03 11:41:10;;;;;;;;;;;20.60;99.90;;;;;;4954122;28;19915;-66
2021/08/03 11:43:35;;;;;;;;;;;20.40;1.00;;;;;;4954635;29;20295;-67
2021/08/03 11:46:01;;;;;;;;;;;20.20;1.00;;;;;;4954157;29;20363;-66
2021/08/03 11:48:28;;;;;;;;;;;20.00;1.00;;;;;;4953063;28;19911;-66
2021/08/03 11:50:54;;;;;;;;;;;20.10;99.90;;;;;;4953817;28;19922;-67
2021/08/03 11:53:20;;;;;;;;;;;20.50;39.90;;;;;;4954146;29;19914;-66
2021/08/03 11:55:47;;;;;;;;;;;21.10;1.00;;;;;;4954607;29;19937;-66
2021/08/03 11:58:17;;;;;;;;;;;21.90;1.00;;;;;;4953187;29;19917;-67
2021/08/03 12:00:42;;;;;;;;;;;23.00;1.00;;;;;;4954470;28;19911;-67
2021/08/03 12:03:07;;;;;;;;;;;24.20;99.90;;;;;;4953937;29;19926;-67
2021/08/03 12:05:34;;;;;;;;;;;25.10;99.90;;;;;;4954393;29;20395;-66
2021/08/03 12:08:02;;;;;;;;;;;26.00;99.90;;;;;;4953180;29;19914;-66
2021/08/03 12:10:28;;;;;;;;;;;26.70;99.90;;;;;;4954396;28;20327;-66
2021/08/03 12:12:54;;;;;;;;;;;27.10;99.90;;;;;;4953317;29;19997;-68
2021/08/03 12:15:20;;;;;;;;;;;27.10;99.90;;;;;;4953856;29;19981;-67
2021/08/03 12:17:47;;;;;;;;;;;27.20;99.90;;;;;;4952779;29;19922;-66
2021/08/03 12:20:31;;;;;;;;;;;27.60;99.90;;;;;;4953507;29;19983;-66
2021/08/03 12:23:15;;;;;;;;;;;27.90;99.90;;;;;;4953216;29;20025;-67
2021/08/03 12:25:46;;;;;;;;;;;28.10;99.90;;;;;;4953271;29;19918;-67
2021/08/03 12:28:47;;;;;;;;;;;28.00;99.90;;;;;;4951780;29;20005;-67
2021/08/03 12:31:15;;;;;;;;;;;27.90;99.90;;;;;;4874391;29;19935;-67
2021/08/03 12:33:43;;;;;;;;;;;27.80;99.90;;;;;;4938190;29;20223;-67
2021/08/03 12:36:12;;;;;;;;;;;27.60;99.90;;;;;;4953059;29;19969;-67
2021/08/03 12:38:38;;;;;;;;;;;27.40;99.90;;;;;;4952560;29;19930;-66
2021/08/03 12:41:17;;;;;;;;;;;27.50;99.90;;;;;;4951667;28;19915;-67
2021/08/03 12:43:42;;;;;;;;;;;27.50;99.90;;;;;;4953361;29;20263;-67
2021/08/03 12:46:08;;;;;;;;;;;27.40;99.90;;;;;;4952728;29;19915;-66
2021/08/03 12:48:34;;;;;;;;;;;26.90;99.90;;;;;;4952195;29;19911;-67
2021/08/03 12:51:02;;;;;;;;;;;26.40;99.90;;;;;;4952371;28;19993;-67
2021/08/03 12:53:29;;;;;;;;;;;26.70;99.90;;;;;;4952636;29;19969;-67
2021/08/03 12:56:05;;;;;;;;;;;26.90;99.90;;;;;;4953422;29;19914;-66
2021/08/03 12:58:44;;;;;;;;;;;26.70;99.90;;;;;;4952351;28;19966;-66
2021/08/03 13:01:15;;;;;;;;;;;26.50;99.90;;;;;;4935312;29;19918;-66
2021/08/03 13:03:40;;;;;;;;;;;26.40;99.90;;;;;;4952833;29;19911;-67
2021/08/03 13:06:06;;;;;;;;;;;26.30;99.90;;;;;;4952444;29;19981;-67
2021/08/03 13:08:32;;;;;;;;;;;26.40;99.90;;;;;;4952640;29;20245;-66
2021/08/03 13:10:57;;;;;;;;;;;26.20;99.90;;;;;;4952638;28;19950;-67
2021/08/03 13:13:23;;;;;;;;;;;26.30;99.90;;;;;;4952219;29;19918;-66
2021/08/03 13:15:48;;;;;;;;;;;26.30;99.90;;;;;;4952740;29;19915;-66
2021/08/03 13:18:14;;;;;;;;;;;26.40;99.90;;;;;;4951860;29;20024;-66
2021/08/03 13:20:40;;;;;;;;;;;26.50;99.90;;;;;;4952293;28;20352;-66
2021/08/03 13:23:05;;;;;;;;;;;26.50;99.90;;;;;;4952639;29;20037;-66
2021/08/03 13:25:31;;;;;;;;;;;26.50;99.90;;;;;;4952378;29;19910;-67
2021/08/03 13:27:56;;;;;;;;;;;26.30;99.90;;;;;;4951627;29;19917;-66
2021/08/03 13:30:22;;;;;;;;;;;26.30;99.90;;;;;;4952813;29;19921;-65
2021/08/03 13:32:47;;;;;;;;;;;26.40;99.90;;;;;;4952052;28;19922;-67
2021/08/03 13:35:13;;;;;;;;;;;26.50;99.90;;;;;;4952268;29;19918;-66
2021/08/03 13:37:38;;;;;;;;;;;26.70;99.90;;;;;;4951723;29;20313;-66
2021/08/03 13:40:04;;;;;;;;;;;26.50;99.90;;;;;;4952423;29;19917;-66
2021/08/03 13:42:30;;;;;;;;;;;26.30;99.90;;;;;;4951724;28;20005;-65
2021/08/03 13:44:55;;;;;;;;;;;26.10;99.90;;;;;;4952295;29;19911;-66
2021/08/03 13:47:21;;;;;;;;;;;25.80;99.90;;;;;;4951777;29;19957;-66
2021/08/03 13:49:47;;;;;;;;;;;25.50;99.90;;;;;;4951923;29;20013;-66
2021/08/03 13:52:13;;;;;;;;;;;25.50;99.90;;;;;;4952400;28;20287;-67
2021/08/03 13:54:39;;;;;;;;;;;25.50;99.90;;;;;;4952735;29;19939;-65
2021/08/03 13:57:05;;;;;;;;;;;25.50;99.90;;;;;;4951565;29;19989;-65
2021/08/03 13:59:30;;;;;;;;;;;25.40;99.90;;;;;;4951667;29;19918;-65
2021/08/03 14:01:56;;;;;;;;;;;25.40;99.90;;;;;;4951692;28;19919;-64
2021/08/03 14:04:22;;;;;;;;;;;25.20;99.90;;;;;;4952137;29;19910;-67
2021/08/03 14:06:47;;;;;;;;;;;24.80;99.90;;;;;;4952217;29;20339;-68
2021/08/03 14:09:13;;;;;;;;;;;24.50;99.90;;;;;;4951737;29;20333;-67
2021/08/03 14:11:38;;;;;;;;;;;24.30;99.90;;;;;;4936706;29;19914;-67
2021/08/03 14:14:04;;;;;;;;;;;23.80;99.90;;;;;;4955741;29;19914;-67
2021/08/03 14:16:30;;;;;;;;;;;23.40;99.90;;;;;;4955490;29;19925;-66
2021/08/03 14:18:55;;;;;;;;;;;23.10;99.90;;;;;;4954984;29;20332;-66
2021/08/03 14:21:21;;;;;;;;;;;23.10;99.90;;;;;;4955221;28;19922;-67
2021/08/03 14:23:46;;;;;;;;;;;23.30;99.90;;;;;;4955620;29;19918;-67
2021/08/03 14:26:12;;;;;;;;;;;23.50;99.90;;;;;;4955119;29;20001;-67
2021/08/03 14:28:37;;;;;;;;;;;23.70;99.90;;;;;;4955030;29;20312;-67